KOLE

Cattaraugus County-Olean Airport

Olean, New York, USA
METAR KOLE 170355Z AUTO 23005KT 10SM CLR 03/M01 A2997 RMK AO2
Observed Flight Rules
Oct-17 @ 03:55 UTC (6 minutes ago) Visual Flight Rules
Wind Visibility Clouds
230° at 5 knots 10 miles
  • Clear skies
Temperatures Readings
Current 3°C / 37°F
Dewpoint -1°C / 30°F
Humidity 75%
Altimeter 29.97" Hg
Pressure 1015 hPa
Elevation 651
METAR KOLE 170355Z AUTO 23005KT 10SM CLR 03/M01 A2997 RMK AO2
Observed Flight Rules
Oct-17 @ 03:55 UTC
(6 minutes ago)
VFR
Wind Visibility
230° at 5 knots 10 miles
Clouds
  • Clear skies
Temperature Dewpoint
3°C / 37°F -1°C / 30°F
Humidity Altimeter Pressure
75% 29.97" Hg 1015 hPa